sensor_id;sensor_type;location;lat;lon;timestamp;P1;durP1;ratioP1;P2;durP2;ratioP2
30149;SDS011;16962;48.646;9.026;2023-02-01T00:00:41;21.63;;;13.30;;
30149;SDS011;16962;48.646;9.026;2023-02-01T00:03:28;20.08;;;12.75;;
30149;SDS011;16962;48.646;9.026;2023-02-01T00:06:18;23.30;;;12.35;;
30149;SDS011;16962;48.646;9.026;2023-02-01T00:09:05;18.55;;;12.95;;
30149;SDS011;16962;48.646;9.026;2023-02-01T00:11:55;22.52;;;13.02;;
30149;SDS011;16962;48.646;9.026;2023-02-01T00:14:48;21.85;;;12.43;;
30149;SDS011;16962;48.646;9.026;2023-02-01T00:17:35;20.35;;;13.07;;
30149;SDS011;16962;48.646;9.026;2023-02-01T00:20:22;23.05;;;11.65;;
30149;SDS011;16962;48.646;9.026;2023-02-01T00:23:09;17.50;;;11.98;;
30149;SDS011;16962;48.646;9.026;2023-02-01T00:25:59;17.52;;;11.55;;
30149;SDS011;16962;48.646;9.026;2023-02-01T00:28:50;19.50;;;11.80;;
30149;SDS011;16962;48.646;9.026;2023-02-01T00:31:40;20.67;;;12.30;;
30149;SDS011;16962;48.646;9.026;2023-02-01T00:34:29;17.55;;;10.75;;
30149;SDS011;16962;48.646;9.026;2023-02-01T00:37:18;17.17;;;10.73;;
30149;SDS011;16962;48.646;9.026;2023-02-01T00:40:05;21.65;;;11.75;;
30149;SDS011;16962;48.646;9.026;2023-02-01T00:43:00;18.50;;;11.13;;
30149;SDS011;16962;48.646;9.026;2023-02-01T00:45:49;17.90;;;11.25;;
30149;SDS011;16962;48.646;9.026;2023-02-01T00:48:37;19.30;;;11.15;;
30149;SDS011;16962;48.646;9.026;2023-02-01T00:51:27;18.48;;;10.38;;
30149;SDS011;16962;48.646;9.026;2023-02-01T00:54:16;16.25;;;10.23;;
30149;SDS011;16962;48.646;9.026;2023-02-01T00:57:04;16.85;;;9.85;;
30149;SDS011;16962;48.646;9.026;2023-02-01T00:59:52;17.83;;;10.07;;
30149;SDS011;16962;48.646;9.026;2023-02-01T01:02:59;17.25;;;9.07;;
30149;SDS011;16962;48.646;9.026;2023-02-01T01:05:48;14.07;;;9.20;;
30149;SDS011;16962;48.646;9.026;2023-02-01T01:08:35;14.25;;;9.57;;
30149;SDS011;16962;48.646;9.026;2023-02-01T01:11:25;14.65;;;9.80;;
30149;SDS011;16962;48.646;9.026;2023-02-01T01:14:17;16.48;;;9.35;;
30149;SDS011;16962;48.646;9.026;2023-02-01T01:17:05;14.93;;;9.57;;
30149;SDS011;16962;48.646;9.026;2023-02-01T01:19:54;13.05;;;9.35;;
30149;SDS011;16962;48.646;9.026;2023-02-01T01:22:45;12.45;;;9.13;;
30149;SDS011;16962;48.646;9.026;2023-02-01T01:25:39;13.50;;;9.75;;
30149;SDS011;16962;48.646;9.026;2023-02-01T01:28:27;17.52;;;10.32;;
30149;SDS011;16962;48.646;9.026;2023-02-01T01:31:15;16.23;;;10.35;;
30149;SDS011;16962;48.646;9.026;2023-02-01T01:34:03;17.38;;;10.45;;
30149;SDS011;16962;48.646;9.026;2023-02-01T01:36:53;17.05;;;11.07;;
30149;SDS011;16962;48.646;9.026;2023-02-01T01:39:42;18.55;;;9.93;;
30149;SDS011;16962;48.646;9.026;2023-02-01T01:42:29;17.90;;;10.30;;
30149;SDS011;16962;48.646;9.026;2023-02-01T01:45:21;15.27;;;9.95;;
30149;SDS011;16962;48.646;9.026;2023-02-01T01:51:12;16.25;;;9.93;;
30149;SDS011;16962;48.646;9.026;2023-02-01T01:54:07;13.88;;;9.20;;
30149;SDS011;16962;48.646;9.026;2023-02-01T01:57:01;14.65;;;9.40;;
30149;SDS011;16962;48.646;9.026;2023-02-01T02:00:05;16.45;;;10.32;;
30149;SDS011;16962;48.646;9.026;2023-02-01T02:03:00;15.00;;;9.57;;
30149;SDS011;16962;48.646;9.026;2023-02-01T02:05:54;15.55;;;9.13;;
30149;SDS011;16962;48.646;9.026;2023-02-01T02:08:45;13.00;;;8.60;;
30149;SDS011;16962;48.646;9.026;2023-02-01T02:11:32;11.57;;;8.60;;
30149;SDS011;16962;48.646;9.026;2023-02-01T02:14:24;12.38;;;8.68;;
30149;SDS011;16962;48.646;9.026;2023-02-01T02:42:46;10.23;;;7.60;;
30149;SDS011;16962;48.646;9.026;2023-02-01T02:53:25;12.85;;;8.70;;
30149;SDS011;16962;48.646;9.026;2023-02-01T02:56:37;13.13;;;8.88;;
30149;SDS011;16962;48.646;9.026;2023-02-01T02:59:47;13.85;;;9.35;;
30149;SDS011;16962;48.646;9.026;2023-02-01T03:02:53;11.43;;;8.38;;
30149;SDS011;16962;48.646;9.026;2023-02-01T03:06:01;17.65;;;10.35;;
30149;SDS011;16962;48.646;9.026;2023-02-01T03:09:01;16.38;;;9.43;;
30149;SDS011;16962;48.646;9.026;2023-02-01T03:11:52;14.18;;;9.07;;
30149;SDS011;16962;48.646;9.026;2023-02-01T03:15:10;18.20;;;11.23;;
30149;SDS011;16962;48.646;9.026;2023-02-01T03:18:00;12.70;;;9.07;;
30149;SDS011;16962;48.646;9.026;2023-02-01T03:20:54;14.00;;;9.60;;
30149;SDS011;16962;48.646;9.026;2023-02-01T03:23:46;13.68;;;9.23;;
30149;SDS011;16962;48.646;9.026;2023-02-01T03:26:37;13.85;;;9.45;;
30149;SDS011;16962;48.646;9.026;2023-02-01T03:29:29;13.70;;;10.00;;
30149;SDS011;16962;48.646;9.026;2023-02-01T03:32:22;15.88;;;9.68;;
30149;SDS011;16962;48.646;9.026;2023-02-01T03:35:10;16.40;;;9.70;;
30149;SDS011;16962;48.646;9.026;2023-02-01T03:38:02;14.77;;;9.73;;
30149;SDS011;16962;48.646;9.026;2023-02-01T03:41:11;17.33;;;10.05;;
30149;SDS011;16962;48.646;9.026;2023-02-01T03:44:16;13.07;;;9.02;;
30149;SDS011;16962;48.646;9.026;2023-02-01T03:47:23;14.65;;;10.13;;
30149;SDS011;16962;48.646;9.026;2023-02-01T03:50:21;13.40;;;10.10;;
30149;SDS011;16962;48.646;9.026;2023-02-01T03:53:14;13.05;;;9.35;;
30149;SDS011;16962;48.646;9.026;2023-02-01T03:56:09;14.90;;;9.55;;
30149;SDS011;16962;48.646;9.026;2023-02-01T03:59:00;13.57;;;8.70;;
30149;SDS011;16962;48.646;9.026;2023-02-01T04:01:48;13.20;;;9.43;;
30149;SDS011;16962;48.646;9.026;2023-02-01T04:04:35;13.20;;;8.82;;
30149;SDS011;16962;48.646;9.026;2023-02-01T04:07:23;11.65;;;8.63;;
30149;SDS011;16962;48.646;9.026;2023-02-01T04:10:13;11.68;;;8.35;;
30149;SDS011;16962;48.646;9.026;2023-02-01T04:13:00;11.60;;;7.97;;
30149;SDS011;16962;48.646;9.026;2023-02-01T04:15:47;10.90;;;8.50;;
30149;SDS011;16962;48.646;9.026;2023-02-01T04:18:36;13.07;;;8.65;;
30149;SDS011;16962;48.646;9.026;2023-02-01T04:21:24;9.48;;;6.90;;
30149;SDS011;16962;48.646;9.026;2023-02-01T04:24:12;11.32;;;8.18;;
30149;SDS011;16962;48.646;9.026;2023-02-01T04:26:59;10.32;;;7.65;;
30149;SDS011;16962;48.646;9.026;2023-02-01T04:29:49;12.55;;;7.57;;
30149;SDS011;16962;48.646;9.026;2023-02-01T04:32:39;9.98;;;7.13;;
30149;SDS011;16962;48.646;9.026;2023-02-01T04:38:16;9.32;;;6.63;;
30149;SDS011;16962;48.646;9.026;2023-02-01T04:41:03;9.10;;;6.57;;
30149;SDS011;16962;48.646;9.026;2023-02-01T04:43:53;9.82;;;6.68;;
30149;SDS011;16962;48.646;9.026;2023-02-01T04:46:40;12.13;;;6.90;;
30149;SDS011;16962;48.646;9.026;2023-02-01T04:49:30;8.38;;;5.78;;
30149;SDS011;16962;48.646;9.026;2023-02-01T04:52:18;6.00;;;5.40;;
30149;SDS011;16962;48.646;9.026;2023-02-01T04:55:06;8.55;;;5.47;;
30149;SDS011;16962;48.646;9.026;2023-02-01T04:57:56;7.10;;;5.68;;
30149;SDS011;16962;48.646;9.026;2023-02-01T05:00:43;7.45;;;5.30;;
30149;SDS011;16962;48.646;9.026;2023-02-01T05:06:43;6.65;;;5.15;;
30149;SDS011;16962;48.646;9.026;2023-02-01T05:12:43;6.85;;;5.60;;
30149;SDS011;16962;48.646;9.026;2023-02-01T05:15:50;5.82;;;4.32;;
30149;SDS011;16962;48.646;9.026;2023-02-01T05:18:38;6.28;;;4.90;;
30149;SDS011;16962;48.646;9.026;2023-02-01T05:21:31;5.70;;;5.00;;
30149;SDS011;16962;48.646;9.026;2023-02-01T05:24:18;5.15;;;4.65;;
30149;SDS011;16962;48.646;9.026;2023-02-01T05:27:07;4.53;;;3.95;;
30149;SDS011;16962;48.646;9.026;2023-02-01T05:29:57;6.43;;;5.22;;
30149;SDS011;16962;48.646;9.026;2023-02-01T05:32:44;14.95;;;6.40;;
30149;SDS011;16962;48.646;9.026;2023-02-01T05:35:35;5.72;;;4.65;;
30149;SDS011;16962;48.646;9.026;2023-02-01T05:38:23;6.40;;;5.10;;
30149;SDS011;16962;48.646;9.026;2023-02-01T05:41:14;5.82;;;4.20;;
30149;SDS011;16962;48.646;9.026;2023-02-01T05:44:07;6.43;;;4.32;;
30149;SDS011;16962;48.646;9.026;2023-02-01T05:46:55;7.78;;;5.28;;
30149;SDS011;16962;48.646;9.026;2023-02-01T05:49:43;6.60;;;4.35;;
30149;SDS011;16962;48.646;9.026;2023-02-01T05:52:30;8.75;;;5.18;;
30149;SDS011;16962;48.646;9.026;2023-02-01T05:55:26;6.80;;;5.22;;
30149;SDS011;16962;48.646;9.026;2023-02-01T05:58:14;9.02;;;4.95;;
30149;SDS011;16962;48.646;9.026;2023-02-01T06:01:02;8.18;;;4.78;;
30149;SDS011;16962;48.646;9.026;2023-02-01T06:03:49;7.90;;;5.95;;
30149;SDS011;16962;48.646;9.026;2023-02-01T06:06:38;9.55;;;5.00;;
30149;SDS011;16962;48.646;9.026;2023-02-01T06:09:27;8.68;;;5.28;;
30149;SDS011;16962;48.646;9.026;2023-02-01T06:12:15;8.25;;;5.20;;
30149;SDS011;16962;48.646;9.026;2023-02-01T06:15:02;7.85;;;5.50;;
30149;SDS011;16962;48.646;9.026;2023-02-01T06:17:49;8.05;;;5.93;;
30149;SDS011;16962;48.646;9.026;2023-02-01T06:20:41;8.05;;;5.15;;
30149;SDS011;16962;48.646;9.026;2023-02-01T06:23:31;9.77;;;5.93;;
30149;SDS011;16962;48.646;9.026;2023-02-01T06:26:22;8.23;;;5.60;;
30149;SDS011;16962;48.646;9.026;2023-02-01T06:29:10;10.23;;;5.18;;
30149;SDS011;16962;48.646;9.026;2023-02-01T06:31:58;9.27;;;6.47;;
30149;SDS011;16962;48.646;9.026;2023-02-01T06:34:45;6.47;;;4.90;;
30149;SDS011;16962;48.646;9.026;2023-02-01T06:37:33;6.75;;;4.82;;
30149;SDS011;16962;48.646;9.026;2023-02-01T06:40:20;7.85;;;4.57;;
30149;SDS011;16962;48.646;9.026;2023-02-01T06:46:57;6.78;;;4.70;;
30149;SDS011;16962;48.646;9.026;2023-02-01T06:50:02;7.35;;;4.80;;
30149;SDS011;16962;48.646;9.026;2023-02-01T06:52:53;8.68;;;5.03;;
30149;SDS011;16962;48.646;9.026;2023-02-01T06:55:50;8.23;;;5.20;;
30149;SDS011;16962;48.646;9.026;2023-02-01T06:58:59;9.98;;;4.88;;
30149;SDS011;16962;48.646;9.026;2023-02-01T07:02:23;9.18;;;6.25;;
30149;SDS011;16962;48.646;9.026;2023-02-01T07:05:20;6.88;;;5.07;;
30149;SDS011;16962;48.646;9.026;2023-02-01T07:08:33;7.50;;;4.15;;
30149;SDS011;16962;48.646;9.026;2023-02-01T07:11:29;8.32;;;4.75;;
30149;SDS011;16962;48.646;9.026;2023-02-01T07:22:56;6.90;;;5.05;;
30149;SDS011;16962;48.646;9.026;2023-02-01T07:33:43;8.23;;;4.72;;
30149;SDS011;16962;48.646;9.026;2023-02-01T07:36:54;9.55;;;4.72;;
30149;SDS011;16962;48.646;9.026;2023-02-01T07:40:05;8.15;;;4.63;;
30149;SDS011;16962;48.646;9.026;2023-02-01T07:55:01;6.95;;;3.80;;
30149;SDS011;16962;48.646;9.026;2023-02-01T07:58:09;6.40;;;4.78;;
30149;SDS011;16962;48.646;9.026;2023-02-01T09:10:59;7.85;;;4.22;;
30149;SDS011;16962;48.646;9.026;2023-02-01T09:14:59;8.18;;;4.00;;
30149;SDS011;16962;48.646;9.026;2023-02-01T09:26:49;14.07;;;4.55;;
30149;SDS011;16962;48.646;9.026;2023-02-01T10:28:25;16.92;;;4.15;;
30149;SDS011;16962;48.646;9.026;2023-02-01T10:31:30;12.43;;;3.58;;
30149;SDS011;16962;48.646;9.026;2023-02-01T10:35:30;18.42;;;4.47;;
30149;SDS011;16962;48.646;9.026;2023-02-01T10:43:33;16.00;;;3.70;;
30149;SDS011;16962;48.646;9.026;2023-02-01T13:21:35;12.43;;;3.65;;
30149;SDS011;16962;48.646;9.026;2023-02-01T13:25:07;13.73;;;3.70;;
30149;SDS011;16962;48.646;9.026;2023-02-01T13:44:42;12.90;;;3.70;;
30149;SDS011;16962;48.646;9.026;2023-02-01T13:47:51;17.98;;;4.28;;
30149;SDS011;16962;48.646;9.026;2023-02-01T14:06:53;19.05;;;4.35;;
30149;SDS011;16962;48.646;9.026;2023-02-01T14:21:34;11.00;;;3.60;;
30149;SDS011;16962;48.646;9.026;2023-02-01T14:28:58;17.02;;;4.13;;
30149;SDS011;16962;48.646;9.026;2023-02-01T15:05:20;15.05;;;4.10;;
30149;SDS011;16962;48.646;9.026;2023-02-01T15:18:24;25.67;;;4.65;;
30149;SDS011;16962;48.646;9.026;2023-02-01T15:21:22;12.15;;;3.78;;
30149;SDS011;16962;48.646;9.026;2023-02-01T15:27:47;12.55;;;4.40;;
30149;SDS011;16962;48.646;9.026;2023-02-01T15:31:02;17.02;;;4.97;;
30149;SDS011;16962;48.646;9.026;2023-02-01T15:33:59;11.45;;;4.05;;
30149;SDS011;16962;48.646;9.026;2023-02-01T15:36:49;15.63;;;3.92;;
30149;SDS011;16962;48.646;9.026;2023-02-01T15:40:33;14.27;;;3.97;;
30149;SDS011;16962;48.646;9.026;2023-02-01T15:46:49;10.88;;;4.47;;
30149;SDS011;16962;48.646;9.026;2023-02-01T15:49:40;17.95;;;4.93;;
30149;SDS011;16962;48.646;9.026;2023-02-01T15:52:34;17.50;;;5.18;;
30149;SDS011;16962;48.646;9.026;2023-02-01T15:55:38;21.10;;;5.75;;
30149;SDS011;16962;48.646;9.026;2023-02-01T15:58:29;21.67;;;5.00;;
30149;SDS011;16962;48.646;9.026;2023-02-01T16:01:18;17.67;;;3.97;;
30149;SDS011;16962;48.646;9.026;2023-02-01T16:04:15;15.18;;;4.15;;
30149;SDS011;16962;48.646;9.026;2023-02-01T16:07:25;15.80;;;4.00;;
30149;SDS011;16962;48.646;9.026;2023-02-01T16:10:22;13.40;;;4.15;;
30149;SDS011;16962;48.646;9.026;2023-02-01T16:13:13;13.73;;;4.00;;
30149;SDS011;16962;48.646;9.026;2023-02-01T16:16:03;18.42;;;4.25;;
30149;SDS011;16962;48.646;9.026;2023-02-01T16:18:59;18.35;;;3.72;;
30149;SDS011;16962;48.646;9.026;2023-02-01T16:24:39;22.90;;;4.85;;
30149;SDS011;16962;48.646;9.026;2023-02-01T16:27:29;22.45;;;4.45;;
30149;SDS011;16962;48.646;9.026;2023-02-01T16:30:19;16.13;;;5.15;;
30149;SDS011;16962;48.646;9.026;2023-02-01T16:33:13;23.25;;;6.70;;
30149;SDS011;16962;48.646;9.026;2023-02-01T16:36:07;32.35;;;7.53;;
30149;SDS011;16962;48.646;9.026;2023-02-01T16:38:56;21.70;;;7.05;;
30149;SDS011;16962;48.646;9.026;2023-02-01T16:41:47;25.30;;;5.90;;
30149;SDS011;16962;48.646;9.026;2023-02-01T16:44:40;23.33;;;6.30;;
30149;SDS011;16962;48.646;9.026;2023-02-01T16:47:28;24.35;;;6.90;;
30149;SDS011;16962;48.646;9.026;2023-02-01T16:50:20;15.30;;;4.18;;
30149;SDS011;16962;48.646;9.026;2023-02-01T16:53:16;23.95;;;4.38;;
30149;SDS011;16962;48.646;9.026;2023-02-01T16:59:08;17.00;;;4.45;;
30149;SDS011;16962;48.646;9.026;2023-02-01T17:01:56;14.85;;;3.58;;
30149;SDS011;16962;48.646;9.026;2023-02-01T17:04:43;23.05;;;5.13;;
30149;SDS011;16962;48.646;9.026;2023-02-01T17:07:35;12.88;;;4.30;;
30149;SDS011;16962;48.646;9.026;2023-02-01T17:10:25;14.35;;;3.83;;
30149;SDS011;16962;48.646;9.026;2023-02-01T17:13:21;24.05;;;4.00;;
30149;SDS011;16962;48.646;9.026;2023-02-01T17:19:06;23.98;;;4.50;;
30149;SDS011;16962;48.646;9.026;2023-02-01T17:22:05;18.38;;;4.78;;
30149;SDS011;16962;48.646;9.026;2023-02-01T17:24:58;14.13;;;4.32;;
30149;SDS011;16962;48.646;9.026;2023-02-01T17:27:45;13.60;;;4.15;;
30149;SDS011;16962;48.646;9.026;2023-02-01T17:30:33;19.98;;;4.60;;
30149;SDS011;16962;48.646;9.026;2023-02-01T17:36:23;22.88;;;4.53;;
30149;SDS011;16962;48.646;9.026;2023-02-01T17:39:12;14.25;;;4.45;;
30149;SDS011;16962;48.646;9.026;2023-02-01T17:42:21;16.23;;;4.43;;
30149;SDS011;16962;48.646;9.026;2023-02-01T17:48:04;13.40;;;3.90;;
30149;SDS011;16962;48.646;9.026;2023-02-01T17:50:54;18.65;;;5.70;;
30149;SDS011;16962;48.646;9.026;2023-02-01T17:53:44;19.90;;;4.35;;
30149;SDS011;16962;48.646;9.026;2023-02-01T17:56:32;21.02;;;5.10;;
30149;SDS011;16962;48.646;9.026;2023-02-01T17:59:20;25.40;;;5.22;;
30149;SDS011;16962;48.646;9.026;2023-02-01T18:02:19;17.00;;;4.65;;
30149;SDS011;16962;48.646;9.026;2023-02-01T18:08:38;17.23;;;4.60;;
30149;SDS011;16962;48.646;9.026;2023-02-01T18:11:26;17.50;;;5.47;;
30149;SDS011;16962;48.646;9.026;2023-02-01T18:14:18;20.42;;;6.93;;
30149;SDS011;16962;48.646;9.026;2023-02-01T18:17:07;19.88;;;5.78;;
30149;SDS011;16962;48.646;9.026;2023-02-01T18:19:54;15.48;;;4.47;;
30149;SDS011;16962;48.646;9.026;2023-02-01T18:22:45;16.75;;;5.47;;
30149;SDS011;16962;48.646;9.026;2023-02-01T18:25:36;22.27;;;5.03;;
30149;SDS011;16962;48.646;9.026;2023-02-01T18:28:24;16.00;;;4.70;;
30149;SDS011;16962;48.646;9.026;2023-02-01T18:31:21;16.58;;;4.00;;
30149;SDS011;16962;48.646;9.026;2023-02-01T18:34:13;21.08;;;6.22;;
30149;SDS011;16962;48.646;9.026;2023-02-01T18:37:07;22.80;;;6.40;;
30149;SDS011;16962;48.646;9.026;2023-02-01T18:39:54;19.95;;;6.80;;
30149;SDS011;16962;48.646;9.026;2023-02-01T18:42:44;20.42;;;5.65;;
30149;SDS011;16962;48.646;9.026;2023-02-01T18:48:27;18.23;;;4.55;;
30149;SDS011;16962;48.646;9.026;2023-02-01T18:51:16;11.20;;;4.10;;
30149;SDS011;16962;48.646;9.026;2023-02-01T18:54:05;18.20;;;3.95;;
30149;SDS011;16962;48.646;9.026;2023-02-01T18:56:56;12.80;;;4.38;;
30149;SDS011;16962;48.646;9.026;2023-02-01T18:59:45;13.30;;;4.22;;
30149;SDS011;16962;48.646;9.026;2023-02-01T19:02:33;18.15;;;4.93;;
30149;SDS011;16962;48.646;9.026;2023-02-01T19:05:22;18.80;;;5.03;;
30149;SDS011;16962;48.646;9.026;2023-02-01T19:08:14;17.42;;;3.97;;
30149;SDS011;16962;48.646;9.026;2023-02-01T19:11:04;14.23;;;4.25;;
30149;SDS011;16962;48.646;9.026;2023-02-01T19:13:55;16.25;;;4.40;;
30149;SDS011;16962;48.646;9.026;2023-02-01T19:16:42;16.63;;;4.20;;
30149;SDS011;16962;48.646;9.026;2023-02-01T19:19:30;19.30;;;4.97;;
30149;SDS011;16962;48.646;9.026;2023-02-01T19:22:18;14.20;;;4.07;;
30149;SDS011;16962;48.646;9.026;2023-02-01T19:25:06;13.30;;;3.92;;
30149;SDS011;16962;48.646;9.026;2023-02-01T19:27:58;17.75;;;4.93;;
30149;SDS011;16962;48.646;9.026;2023-02-01T19:30:48;11.55;;;3.15;;
30149;SDS011;16962;48.646;9.026;2023-02-01T19:33:36;15.48;;;3.88;;
30149;SDS011;16962;48.646;9.026;2023-02-01T19:36:26;12.25;;;4.20;;
30149;SDS011;16962;48.646;9.026;2023-02-01T19:39:13;19.73;;;4.07;;
30149;SDS011;16962;48.646;9.026;2023-02-01T19:42:01;15.35;;;4.15;;
30149;SDS011;16962;48.646;9.026;2023-02-01T19:44:50;21.75;;;4.78;;
30149;SDS011;16962;48.646;9.026;2023-02-01T19:47:40;14.70;;;4.35;;
30149;SDS011;16962;48.646;9.026;2023-02-01T19:50:28;13.52;;;3.60;;
30149;SDS011;16962;48.646;9.026;2023-02-01T19:53:15;20.05;;;4.63;;
30149;SDS011;16962;48.646;9.026;2023-02-01T19:56:06;18.85;;;4.28;;
30149;SDS011;16962;48.646;9.026;2023-02-01T19:58:54;19.92;;;4.00;;
30149;SDS011;16962;48.646;9.026;2023-02-01T20:01:41;21.67;;;4.13;;
30149;SDS011;16962;48.646;9.026;2023-02-01T20:07:21;15.70;;;4.35;;
30149;SDS011;16962;48.646;9.026;2023-02-01T20:10:09;13.65;;;4.35;;
30149;SDS011;16962;48.646;9.026;2023-02-01T20:12:58;18.77;;;4.65;;
30149;SDS011;16962;48.646;9.026;2023-02-01T20:15:45;22.73;;;4.78;;
30149;SDS011;16962;48.646;9.026;2023-02-01T20:18:34;15.23;;;4.20;;
30149;SDS011;16962;48.646;9.026;2023-02-01T20:21:25;14.18;;;4.05;;
30149;SDS011;16962;48.646;9.026;2023-02-01T20:24:15;16.70;;;3.97;;
30149;SDS011;16962;48.646;9.026;2023-02-01T20:27:07;20.27;;;4.60;;
30149;SDS011;16962;48.646;9.026;2023-02-01T20:29:56;12.20;;;3.40;;
30149;SDS011;16962;48.646;9.026;2023-02-01T20:32:43;20.73;;;4.32;;
30149;SDS011;16962;48.646;9.026;2023-02-01T20:35:42;19.45;;;4.18;;
30149;SDS011;16962;48.646;9.026;2023-02-01T20:38:31;17.63;;;4.07;;
30149;SDS011;16962;48.646;9.026;2023-02-01T20:41:19;17.17;;;3.85;;
30149;SDS011;16962;48.646;9.026;2023-02-01T20:44:09;19.15;;;5.63;;
30149;SDS011;16962;48.646;9.026;2023-02-01T20:47:00;20.60;;;5.47;;
30149;SDS011;16962;48.646;9.026;2023-02-01T20:49:50;14.45;;;4.03;;
30149;SDS011;16962;48.646;9.026;2023-02-01T20:52:37;14.00;;;4.25;;
30149;SDS011;16962;48.646;9.026;2023-02-01T20:55:25;15.38;;;4.03;;
30149;SDS011;16962;48.646;9.026;2023-02-01T20:58:22;17.00;;;4.32;;
30149;SDS011;16962;48.646;9.026;2023-02-01T21:01:13;15.35;;;4.30;;
30149;SDS011;16962;48.646;9.026;2023-02-01T21:04:03;12.52;;;3.97;;
30149;SDS011;16962;48.646;9.026;2023-02-01T21:06:52;18.38;;;4.35;;
30149;SDS011;16962;48.646;9.026;2023-02-01T21:09:40;14.85;;;4.20;;
30149;SDS011;16962;48.646;9.026;2023-02-01T21:12:29;25.70;;;4.38;;
30149;SDS011;16962;48.646;9.026;2023-02-01T21:15:16;18.38;;;4.60;;
30149;SDS011;16962;48.646;9.026;2023-02-01T21:18:05;21.58;;;5.53;;
30149;SDS011;16962;48.646;9.026;2023-02-01T21:21:02;19.65;;;4.60;;
30149;SDS011;16962;48.646;9.026;2023-02-01T21:23:54;20.45;;;4.85;;
30149;SDS011;16962;48.646;9.026;2023-02-01T21:26:45;23.48;;;5.03;;
30149;SDS011;16962;48.646;9.026;2023-02-01T21:32:23;20.65;;;4.45;;
30149;SDS011;16962;48.646;9.026;2023-02-01T21:35:14;28.33;;;7.45;;
30149;SDS011;16962;48.646;9.026;2023-02-01T21:38:02;20.45;;;5.60;;
30149;SDS011;16962;48.646;9.026;2023-02-01T21:40:50;15.65;;;4.80;;
30149;SDS011;16962;48.646;9.026;2023-02-01T21:43:57;16.08;;;4.53;;
30149;SDS011;16962;48.646;9.026;2023-02-01T21:46:45;16.33;;;4.50;;
30149;SDS011;16962;48.646;9.026;2023-02-01T21:49:32;16.13;;;5.20;;
30149;SDS011;16962;48.646;9.026;2023-02-01T21:52:20;18.73;;;4.38;;
30149;SDS011;16962;48.646;9.026;2023-02-01T21:55:09;17.08;;;5.15;;
30149;SDS011;16962;48.646;9.026;2023-02-01T21:57:59;22.30;;;4.60;;
30149;SDS011;16962;48.646;9.026;2023-02-01T22:00:46;16.40;;;4.90;;
30149;SDS011;16962;48.646;9.026;2023-02-01T22:03:34;14.98;;;4.28;;
30149;SDS011;16962;48.646;9.026;2023-02-01T22:06:28;20.17;;;5.35;;
30149;SDS011;16962;48.646;9.026;2023-02-01T22:09:19;20.50;;;4.57;;
30149;SDS011;16962;48.646;9.026;2023-02-01T22:12:12;18.50;;;4.68;;
30149;SDS011;16962;48.646;9.026;2023-02-01T22:15:00;18.85;;;5.50;;
30149;SDS011;16962;48.646;9.026;2023-02-01T22:17:49;16.42;;;5.05;;
30149;SDS011;16962;48.646;9.026;2023-02-01T22:20:36;19.83;;;5.13;;
30149;SDS011;16962;48.646;9.026;2023-02-01T22:23:23;19.48;;;4.75;;
30149;SDS011;16962;48.646;9.026;2023-02-01T22:26:13;17.42;;;4.55;;
30149;SDS011;16962;48.646;9.026;2023-02-01T22:29:01;24.00;;;4.95;;
30149;SDS011;16962;48.646;9.026;2023-02-01T22:31:48;18.45;;;4.80;;
30149;SDS011;16962;48.646;9.026;2023-02-01T22:34:45;16.92;;;5.05;;
30149;SDS011;16962;48.646;9.026;2023-02-01T22:37:33;17.65;;;5.03;;
30149;SDS011;16962;48.646;9.026;2023-02-01T22:40:20;19.90;;;3.90;;
30149;SDS011;16962;48.646;9.026;2023-02-01T22:43:10;20.50;;;4.88;;
30149;SDS011;16962;48.646;9.026;2023-02-01T22:45:58;18.55;;;5.57;;
30149;SDS011;16962;48.646;9.026;2023-02-01T22:48:58;18.42;;;4.85;;
30149;SDS011;16962;48.646;9.026;2023-02-01T22:51:46;27.88;;;6.35;;
30149;SDS011;16962;48.646;9.026;2023-02-01T22:54:59;16.70;;;4.70;;
30149;SDS011;16962;48.646;9.026;2023-02-01T22:57:47;18.50;;;5.05;;
30149;SDS011;16962;48.646;9.026;2023-02-01T23:00:34;20.17;;;4.93;;
30149;SDS011;16962;48.646;9.026;2023-02-01T23:03:22;16.30;;;3.92;;
30149;SDS011;16962;48.646;9.026;2023-02-01T23:06:16;17.50;;;5.30;;
30149;SDS011;16962;48.646;9.026;2023-02-01T23:09:18;14.95;;;4.07;;
30149;SDS011;16962;48.646;9.026;2023-02-01T23:12:08;16.80;;;4.38;;
30149;SDS011;16962;48.646;9.026;2023-02-01T23:14:55;14.88;;;4.10;;
30149;SDS011;16962;48.646;9.026;2023-02-01T23:17:52;19.13;;;5.07;;
30149;SDS011;16962;48.646;9.026;2023-02-01T23:20:42;18.63;;;4.75;;
30149;SDS011;16962;48.646;9.026;2023-02-01T23:23:29;14.18;;;4.20;;
30149;SDS011;16962;48.646;9.026;2023-02-01T23:26:16;12.20;;;4.85;;
30149;SDS011;16962;48.646;9.026;2023-02-01T23:29:04;18.45;;;4.72;;
30149;SDS011;16962;48.646;9.026;2023-02-01T23:31:51;18.85;;;4.85;;
30149;SDS011;16962;48.646;9.026;2023-02-01T23:34:39;20.70;;;4.90;;
30149;SDS011;16962;48.646;9.026;2023-02-01T23:37:26;17.23;;;5.15;;
30149;SDS011;16962;48.646;9.026;2023-02-01T23:40:17;15.95;;;4.95;;
30149;SDS011;16962;48.646;9.026;2023-02-01T23:43:04;20.50;;;4.40;;
30149;SDS011;16962;48.646;9.026;2023-02-01T23:46:13;20.10;;;5.18;;
30149;SDS011;16962;48.646;9.026;2023-02-01T23:49:05;17.70;;;4.07;;
30149;SDS011;16962;48.646;9.026;2023-02-01T23:51:53;20.33;;;4.75;;
30149;SDS011;16962;48.646;9.026;2023-02-01T23:54:41;15.75;;;5.10;;
30149;SDS011;16962;48.646;9.026;2023-02-01T23:57:28;18.65;;;4.70;;
